Miniplon — FIDV — position and weather

sailwx.info

Track history (hours):
 
Tides and Currents Weather Stations Pressure Air Temp Water Temp Dewpoint Dewpoint Depression Visibility Wind Speed Wind Dir Waves Ship Positions

Miniplon

Last reported at 2015-Apr-16 19:33 UTC. Time now 2015-Apr-18 04:53 UTC.
Position N 46°30' W 001°47'.

Length 22 m.

Type: SAR. MMSI: 228024600.

Date/timePositionNaut miles runAvg speedWind from/ knotsBaromVisibWave heightAir tempDewpointWater temp
2015-Apr-16 19:33N 46°30' W 001°47'4 4.4
2015-Apr-16 18:33N 46°26' W 001°44'7 6.9
2015-Apr-16 17:33N 46°22' W 001°35'13 6.5
2015-Apr-16 15:33N 46°16' W 001°18'8 5.6
2015-Apr-16 14:04N 46°20' W 001°29'510.0
2015-Apr-16 13:33N 46°24' W 001°35'8 8.2
2015-Apr-16 12:33N 46°28' W 001°45'3 2.7
2015-Apr-16 11:33N 46°30' W 001°47'0 0.0
2015-Apr-16 10:33N 46°30' W 001°47'0 0.0
2015-Apr-16 09:33N 46°30' W 001°47'0 0.0
2015-Apr-16 08:33N 46°30' W 001°47'0 0.0
2015-Apr-16 07:33N 46°30' W 001°47'0 0.0
2015-Apr-16 06:33N 46°30' W 001°47'0 0.0
2015-Apr-16 05:33N 46°30' W 001°47'0 0.0
2015-Apr-16 04:33N 46°30' W 001°47'0 0.0
2015-Apr-16 03:33N 46°30' W 001°47'0 0.0
2015-Apr-16 02:33N 46°30' W 001°47'0 0.0
2015-Apr-16 01:33N 46°30' W 001°47'0 0.0
2015-Apr-16 00:33N 46°30' W 001°47'0 0.0
2015-Apr-15 23:33N 46°30' W 001°47'0 0.0
2015-Apr-15 22:33N 46°30' W 001°47'0 0.0
2015-Apr-15 21:33N 46°30' W 001°47'0 0.0
2015-Apr-15 20:33N 46°30' W 001°47'0 0.0
2015-Apr-15 19:33N 46°30' W 001°47'0 0.0
2015-Apr-15 18:33N 46°30' W 001°47'0 0.0
2015-Apr-15 17:33N 46°30' W 001°47'0 0.0
2015-Apr-15 16:33N 46°30' W 001°47'0 0.0
2015-Apr-15 15:33N 46°30' W 001°47'7 7.2
2015-Apr-15 14:33N 46°24' W 001°41'9 4.6
2015-Apr-15 12:32N 46°15' W 001°39'12 6.3
2015-Apr-15 10:33N 46°06' W 001°27'14 7.0
2015-Apr-15 08:33N 46°17' W 001°39'1010.5
2015-Apr-15 07:33N 46°27' W 001°46'3 3.4
2015-Apr-15 06:33N 46°30' W 001°47'0 0.0
2015-Apr-15 05:33N 46°30' W 001°47'0 0.0
2015-Apr-15 04:33N 46°30' W 001°47'0 0.0
2015-Apr-15 03:33N 46°30' W 001°47'0 0.0
2015-Apr-15 02:33N 46°30' W 001°47'0 0.0
2015-Apr-15 01:33N 46°30' W 001°47'0 0.0
2015-Apr-15 00:33N 46°30' W 001°47'0 0.0
2015-Apr-14 23:33N 46°30' W 001°47'0 0.0
2015-Apr-14 22:33N 46°30' W 001°47'0 0.0
2015-Apr-14 21:33N 46°30' W 001°47'0 0.4
2015-Apr-14 20:33N 46°30' W 001°48'9 9.4
2015-Apr-14 19:33N 46°21' W 001°43'6 6.5
2015-Apr-14 18:33N 46°15' W 001°39'0 0.0
2015-Apr-14 03:32N 46°15' W 001°39'9 9.1
2015-Apr-14 02:33N 46°23' W 001°44'7 7.3
2015-Apr-14 01:33N 46°30' W 001°47'0 0.0
2015-Apr-14 00:33N 46°30' W 001°47'0 0.0
2015-Apr-13 23:33N 46°30' W 001°47'0 0.0
2015-Apr-13 22:33N 46°30' W 001°47'0 0.0
2015-Apr-13 21:33N 46°30' W 001°47'0 0.0
2015-Apr-13 20:33N 46°30' W 001°47'0 0.0
2015-Apr-13 19:33N 46°30' W 001°47'0 0.0
2015-Apr-13 18:33N 46°30' W 001°47'0 0.0
2015-Apr-13 17:33N 46°30' W 001°47'0 0.0
2015-Apr-13 16:33N 46°30' W 001°47'0 0.0
2015-Apr-13 15:33N 46°30' W 001°47'0 0.0
2015-Apr-13 14:33N 46°30' W 001°47'0 0.0
2015-Apr-13 13:33N 46°30' W 001°47'0 0.0
2015-Apr-13 12:33N 46°30' W 001°47'0 0.0
2015-Apr-13 11:33N 46°30' W 001°47'0 0.0
2015-Apr-13 10:33N 46°30' W 001°47'0 0.0
2015-Apr-13 09:33N 46°30' W 001°47'0 0.0
2015-Apr-13 08:33N 46°30' W 001°47'0 0.0
2015-Apr-13 07:33N 46°30' W 001°47'0 0.0
2015-Apr-13 06:33N 46°30' W 001°47'0 0.0
2015-Apr-13 05:33N 46°30' W 001°47'0 0.0
2015-Apr-13 04:30N 46°30' W 001°47'0 0.0
2015-Apr-13 03:33N 46°30' W 001°47'0 0.0
2015-Apr-13 02:33N 46°30' W 001°47'0 0.0
2015-Apr-13 01:33N 46°30' W 001°47'0 0.0
2015-Apr-13 00:33N 46°30' W 001°47'0 0.2
2015-Apr-12 23:33N 46°30' W 001°48'6 5.7
2015-Apr-12 22:33N 46°32' W 001°55'9 8.7
2015-Apr-12 21:33N 46°39' W 002°03'10 9.1
2015-Apr-12 20:26N 46°47' W 002°12'17 8.4
2015-Apr-12 18:23N 47°02' W 002°24'9 0.9
2015-Apr-12 08:08N 47°11' W 002°19'0 0.0
2015-Apr-12 07:23N 47°11' W 002°19'0 0.1
2015-Apr-12 06:33N 47°11' W 002°19'8 7.6
2015-Apr-12 05:33N 47°03' W 002°18'2 1.4
2015-Apr-12 04:28N 47°01' W 002°18'0 0.0
2015-Apr-12 03:06N 47°01' W 002°18'0 0.0
2015-Apr-12 01:09N 47°01' W 002°18'25 1.0
2015-Apr-11 00:04N 46°38' W 002°07'5 9.5
2015-Apr-10 23:32N 46°35' W 002°02'10 9.9
2015-Apr-10 22:33N 46°29' W 001°50'  
2015-Apr-08 17:14N 46°30' W 001°48'1 1.6
2015-Apr-08 16:33N 46°29' W 001°47'1 1.4
2015-Apr-08 15:33N 46°30' W 001°47'1 1.4
2015-Apr-08 14:33N 46°29' W 001°47'1 1.3
2015-Apr-08 13:33N 46°30' W 001°48'0 0.2
2015-Apr-08 12:33N 46°30' W 001°47'0 0.0
2015-Apr-08 11:33N 46°30' W 001°47'1 1.4
2015-Apr-08 10:33N 46°29' W 001°47'0 0.2
2015-Apr-08 09:33N 46°29' W 001°47'0 0.3
2015-Apr-08 08:33N 46°28' W 001°47'1 0.1
2015-Apr-07 13:33N 46°30' W 001°48'  
Track history (hours):
 
Tides and Currents Weather Stations Pressure Air Temp Water Temp Dewpoint Dewpoint Depression Visibility Wind Speed Wind Dir Waves Ship Positions

Miniplon

Last reported at 2015-Apr-16 19:33 UTC. Time now 2015-Apr-18 04:53 UTC.
Position N 46°30' W 001°47'.

Length 22 m.

Type: SAR. MMSI: 228024600.

Date/timePositionNaut miles runAvg speedWind from/ knotsBaromVisibWave heightAir tempDewpointWater temp
2015-Apr-16 19:33N 46°30' W 001°47'4 4.4
2015-Apr-16 18:33N 46°26' W 001°44'7 6.9
2015-Apr-16 17:33N 46°22' W 001°35'13 6.5
2015-Apr-16 15:33N 46°16' W 001°18'8 5.6
2015-Apr-16 14:04N 46°20' W 001°29'510.0
2015-Apr-16 13:33N 46°24' W 001°35'8 8.2
2015-Apr-16 12:33N 46°28' W 001°45'3 2.7
2015-Apr-16 11:33N 46°30' W 001°47'0 0.0
2015-Apr-16 10:33N 46°30' W 001°47'0 0.0
2015-Apr-16 09:33N 46°30' W 001°47'0 0.0
2015-Apr-16 08:33N 46°30' W 001°47'0 0.0
2015-Apr-16 07:33N 46°30' W 001°47'0 0.0
2015-Apr-16 06:33N 46°30' W 001°47'0 0.0
2015-Apr-16 05:33N 46°30' W 001°47'0 0.0
2015-Apr-16 04:33N 46°30' W 001°47'0 0.0
2015-Apr-16 03:33N 46°30' W 001°47'0 0.0
2015-Apr-16 02:33N 46°30' W 001°47'0 0.0
2015-Apr-16 01:33N 46°30' W 001°47'0 0.0
2015-Apr-16 00:33N 46°30' W 001°47'0 0.0
2015-Apr-15 23:33N 46°30' W 001°47'0 0.0
2015-Apr-15 22:33N 46°30' W 001°47'0 0.0
2015-Apr-15 21:33N 46°30' W 001°47'0 0.0
2015-Apr-15 20:33N 46°30' W 001°47'0 0.0
2015-Apr-15 19:33N 46°30' W 001°47'0 0.0
2015-Apr-15 18:33N 46°30' W 001°47'0 0.0
2015-Apr-15 17:33N 46°30' W 001°47'0 0.0
2015-Apr-15 16:33N 46°30' W 001°47'0 0.0
2015-Apr-15 15:33N 46°30' W 001°47'7 7.2
2015-Apr-15 14:33N 46°24' W 001°41'9 4.6
2015-Apr-15 12:32N 46°15' W 001°39'12 6.3
2015-Apr-15 10:33N 46°06' W 001°27'14 7.0
2015-Apr-15 08:33N 46°17' W 001°39'1010.5
2015-Apr-15 07:33N 46°27' W 001°46'3 3.4
2015-Apr-15 06:33N 46°30' W 001°47'0 0.0
2015-Apr-15 05:33N 46°30' W 001°47'0 0.0
2015-Apr-15 04:33N 46°30' W 001°47'0 0.0
2015-Apr-15 03:33N 46°30' W 001°47'0 0.0
2015-Apr-15 02:33N 46°30' W 001°47'0 0.0
2015-Apr-15 01:33N 46°30' W 001°47'0 0.0
2015-Apr-15 00:33N 46°30' W 001°47'0 0.0
2015-Apr-14 23:33N 46°30' W 001°47'0 0.0
2015-Apr-14 22:33N 46°30' W 001°47'0 0.0
2015-Apr-14 21:33N 46°30' W 001°47'0 0.4
2015-Apr-14 20:33N 46°30' W 001°48'9 9.4
2015-Apr-14 19:33N 46°21' W 001°43'6 6.5
2015-Apr-14 18:33N 46°15' W 001°39'0 0.0
2015-Apr-14 03:32N 46°15' W 001°39'9 9.1
2015-Apr-14 02:33N 46°23' W 001°44'7 7.3
2015-Apr-14 01:33N 46°30' W 001°47'0 0.0
2015-Apr-14 00:33N 46°30' W 001°47'0 0.0
2015-Apr-13 23:33N 46°30' W 001°47'0 0.0
2015-Apr-13 22:33N 46°30' W 001°47'0 0.0
2015-Apr-13 21:33N 46°30' W 001°47'0 0.0
2015-Apr-13 20:33N 46°30' W 001°47'0 0.0
2015-Apr-13 19:33N 46°30' W 001°47'0 0.0
2015-Apr-13 18:33N 46°30' W 001°47'0 0.0
2015-Apr-13 17:33N 46°30' W 001°47'0 0.0
2015-Apr-13 16:33N 46°30' W 001°47'0 0.0
2015-Apr-13 15:33N 46°30' W 001°47'0 0.0
2015-Apr-13 14:33N 46°30' W 001°47'0 0.0
2015-Apr-13 13:33N 46°30' W 001°47'0 0.0
2015-Apr-13 12:33N 46°30' W 001°47'0 0.0
2015-Apr-13 11:33N 46°30' W 001°47'0 0.0
2015-Apr-13 10:33N 46°30' W 001°47'0 0.0
2015-Apr-13 09:33N 46°30' W 001°47'0 0.0
2015-Apr-13 08:33N 46°30' W 001°47'0 0.0
2015-Apr-13 07:33N 46°30' W 001°47'0 0.0
2015-Apr-13 06:33N 46°30' W 001°47'0 0.0
2015-Apr-13 05:33N 46°30' W 001°47'0 0.0
2015-Apr-13 04:30N 46°30' W 001°47'0 0.0
2015-Apr-13 03:33N 46°30' W 001°47'0 0.0
2015-Apr-13 02:33N 46°30' W 001°47'0 0.0
2015-Apr-13 01:33N 46°30' W 001°47'0 0.0
2015-Apr-13 00:33N 46°30' W 001°47'0 0.2
2015-Apr-12 23:33N 46°30' W 001°48'6 5.7
2015-Apr-12 22:33N 46°32' W 001°55'9 8.7
2015-Apr-12 21:33N 46°39' W 002°03'10 9.1
2015-Apr-12 20:26N 46°47' W 002°12'17 8.4
2015-Apr-12 18:23N 47°02' W 002°24'9 0.9
2015-Apr-12 08:08N 47°11' W 002°19'0 0.0
2015-Apr-12 07:23N 47°11' W 002°19'0 0.1
2015-Apr-12 06:33N 47°11' W 002°19'8 7.6
2015-Apr-12 05:33N 47°03' W 002°18'2 1.4
2015-Apr-12 04:28N 47°01' W 002°18'0 0.0
2015-Apr-12 03:06N 47°01' W 002°18'0 0.0
2015-Apr-12 01:09N 47°01' W 002°18'25 1.0
2015-Apr-11 00:04N 46°38' W 002°07'5 9.5
2015-Apr-10 23:32N 46°35' W 002°02'10 9.9
2015-Apr-10 22:33N 46°29' W 001°50'  
2015-Apr-08 17:14N 46°30' W 001°48'1 1.6
2015-Apr-08 16:33N 46°29' W 001°47'1 1.4
2015-Apr-08 15:33N 46°30' W 001°47'1 1.4
2015-Apr-08 14:33N 46°29' W 001°47'1 1.3
2015-Apr-08 13:33N 46°30' W 001°48'0 0.2
2015-Apr-08 12:33N 46°30' W 001°47'0 0.0
2015-Apr-08 11:33N 46°30' W 001°47'1 1.4
2015-Apr-08 10:33N 46°29' W 001°47'0 0.2
2015-Apr-08 09:33N 46°29' W 001°47'0 0.3
2015-Apr-08 08:33N 46°28' W 001°47'1 0.1
2015-Apr-07 13:33N 46°30' W 001°48'  

Dump ship's entire track history